Time;durP1;ratioP1;P1;durP2;ratioP2;P2;SDS_P1;SDS_P2;PMS_P1;PMS_P2;Temp;Humidity;BMP_temperature;BMP_pressure;BME280_temperature;BME280_humidity;BME280_pressure;Samples;Min_cycle;Max_cycle;Signal;HPM_P1;HPM_P2
2023/06/29 00:00:13;;;;;;;6.18;2.85;;;16.90;99.90;;;;;;4988883;28;20030;-47
2023/06/29 00:02:39;;;;;;;7.28;3.15;;;16.80;99.90;;;;;;4988936;28;20014;-48
2023/06/29 00:05:05;;;;;;;4.43;3.15;;;16.80;99.90;;;;;;4988904;28;20439;-50
2023/06/29 00:07:33;;;;;;;3.97;2.70;;;16.80;99.90;;;;;;4988602;28;20041;-49
2023/06/29 00:09:58;;;;;;;4.07;2.67;;;16.70;99.90;;;;;;4988412;28;20391;-48
2023/06/29 00:12:24;;;;;;;5.30;3.30;;;16.60;99.90;;;;;;4988424;28;20030;-48
2023/06/29 00:14:49;;;;;;;4.07;2.92;;;16.50;99.90;;;;;;4985283;28;20026;-50
2023/06/29 00:17:16;;;;;;;5.22;2.72;;;16.50;99.90;;;;;;4975005;28;20519;-50
2023/06/29 00:19:41;;;;;;;3.55;2.85;;;16.50;99.90;;;;;;4978885;28;20054;-50
2023/06/29 00:22:08;;;;;;;4.78;3.15;;;16.40;99.90;;;;;;4980741;28;20077;-47
2023/06/29 00:24:42;;;;;;;6.05;3.13;;;16.30;99.90;;;;;;4985680;28;20018;-48
2023/06/29 00:27:13;;;;;;;4.78;3.17;;;16.40;99.90;;;;;;4977728;28;20039;-50
2023/06/29 00:29:43;;;;;;;4.75;3.53;;;16.30;99.90;;;;;;4994490;28;20050;-49
2023/06/29 00:32:10;;;;;;;5.35;3.35;;;16.30;99.90;;;;;;4988382;28;20027;-47
2023/06/29 00:34:35;;;;;;;5.50;3.33;;;16.30;99.90;;;;;;4985782;28;20387;-46
2023/06/29 00:37:01;;;;;;;4.00;2.88;;;16.30;99.90;;;;;;4987932;28;20026;-51
2023/06/29 00:39:26;;;;;;;4.68;3.47;;;16.30;99.90;;;;;;4982578;28;20050;-48
2023/06/29 00:41:55;;;;;;;5.75;3.67;;;16.30;99.90;;;;;;4974686;28;20030;-48
2023/06/29 00:44:24;;;;;;;4.95;3.45;;;16.40;99.90;;;;;;5035293;28;20541;-47
2023/06/29 00:46:52;;;;;;;5.22;3.75;;;16.40;99.90;;;;;;4974841;28;20030;-47
2023/06/29 00:49:19;;;;;;;4.97;4.10;;;16.40;99.90;;;;;;4988134;28;20484;-47
2023/06/29 00:51:50;;;;;;;6.43;3.83;;;16.50;99.90;;;;;;4988128;28;20556;-47
2023/06/29 00:54:17;;;;;;;9.27;4.13;;;16.50;99.90;;;;;;4987737;28;20510;-47
2023/06/29 00:56:43;;;;;;;5.47;4.53;;;16.50;99.90;;;;;;4969579;28;20033;-50
2023/06/29 00:59:08;;;;;;;9.20;3.88;;;16.60;99.90;;;;;;4987855;28;20506;-47
2023/06/29 01:01:35;;;;;;;7.43;4.03;;;16.70;99.90;;;;;;4987808;28;20023;-47
2023/06/29 01:04:01;;;;;;;4.75;3.88;;;16.80;99.90;;;;;;4987588;28;20340;-49
2023/06/29 01:06:30;;;;;;;6.65;3.55;;;16.80;99.90;;;;;;4987396;28;20593;-47
2023/06/29 01:09:04;;;;;;;5.57;3.67;;;16.90;99.90;;;;;;4987556;28;20076;-47
2023/06/29 01:11:32;;;;;;;6.35;3.55;;;16.90;99.90;;;;;;4987868;28;20033;-47
2023/06/29 01:13:59;;;;;;;5.13;3.42;;;17.00;99.90;;;;;;4987666;28;20490;-47
2023/06/29 01:16:25;;;;;;;6.00;3.78;;;17.00;99.90;;;;;;4987681;28;20046;-51
2023/06/29 01:18:52;;;;;;;7.15;3.80;;;17.00;99.90;;;;;;4970307;28;20134;-50
2023/06/29 01:21:18;;;;;;;7.05;4.10;;;17.10;99.90;;;;;;4987834;28;20110;-49
2023/06/29 01:23:46;;;;;;;7.15;3.78;;;17.10;99.90;;;;;;4987862;28;20117;-49
2023/06/29 01:26:12;;;;;;;4.75;3.67;;;17.10;99.90;;;;;;4987548;28;20053;-49
2023/06/29 01:28:38;;;;;;;6.30;4.25;;;17.10;99.90;;;;;;4967967;28;20114;-49
2023/06/29 01:31:07;;;;;;;13.30;4.43;;;17.10;99.90;;;;;;4968348;28;20063;-47
2023/06/29 01:33:33;;;;;;;7.10;4.07;;;17.10;99.90;;;;;;4963579;28;20064;-48
2023/06/29 01:36:30;;;;;;;6.43;3.63;;;17.20;99.90;;;;;;4987250;28;20169;-47
2023/06/29 01:39:07;;;;;;;6.32;3.55;;;17.20;99.90;;;;;;4986973;28;20502;-48
2023/06/29 01:41:39;;;;;;;7.07;3.67;;;17.10;99.90;;;;;;4987601;28;20026;-49
2023/06/29 01:44:08;;;;;;;9.50;3.53;;;17.10;99.90;;;;;;4987155;28;20037;-49
2023/06/29 01:46:34;;;;;;;5.35;3.50;;;17.10;99.90;;;;;;4986732;28;20026;-48
2023/06/29 01:49:01;;;;;;;5.40;3.60;;;17.10;99.90;;;;;;4985461;28;20033;-50
2023/06/29 01:51:26;;;;;;;8.85;3.88;;;17.10;99.90;;;;;;4970032;28;20083;-49
2023/06/29 01:53:53;;;;;;;5.80;3.38;;;17.10;99.90;;;;;;4987454;28;20026;-47
2023/06/29 01:56:18;;;;;;;8.75;4.00;;;17.10;99.90;;;;;;4987581;28;20027;-48
2023/06/29 01:58:44;;;;;;;5.00;3.20;;;17.10;99.90;;;;;;4987317;28;20379;-48
2023/06/29 02:01:09;;;;;;;8.93;3.40;;;17.10;99.90;;;;;;4986749;28;20117;-48
2023/06/29 02:03:35;;;;;;;9.10;3.25;;;17.10;99.90;;;;;;4986795;28;20391;-47
2023/06/29 02:06:00;;;;;;;5.00;3.63;;;17.20;99.90;;;;;;4987011;28;20376;-48
2023/06/29 02:08:26;;;;;;;3.67;3.17;;;17.10;99.90;;;;;;4986498;28;20448;-49
2023/06/29 02:10:51;;;;;;;6.30;3.85;;;17.10;99.90;;;;;;4987172;28;20358;-47
2023/06/29 02:13:17;;;;;;;6.82;3.90;;;17.10;99.90;;;;;;4989298;28;20030;-47
2023/06/29 02:15:42;;;;;;;7.53;3.78;;;17.10;99.90;;;;;;4990044;28;20545;-48
2023/06/29 02:18:08;;;;;;;9.45;3.97;;;17.10;99.90;;;;;;4990150;28;20025;-48
2023/06/29 02:20:33;;;;;;;7.45;3.53;;;17.10;99.90;;;;;;4990245;28;20030;-47
2023/06/29 02:22:59;;;;;;;6.93;3.28;;;17.10;99.90;;;;;;4990353;28;20037;-47
2023/06/29 02:25:24;;;;;;;5.63;2.97;;;17.00;99.90;;;;;;4990353;28;20399;-50
2023/06/29 02:27:50;;;;;;;4.78;3.40;;;17.10;99.90;;;;;;4989467;28;20099;-50
2023/06/29 02:30:15;;;;;;;5.95;3.30;;;17.00;99.90;;;;;;4990077;28;20031;-47
2023/06/29 02:32:41;;;;;;;4.72;3.63;;;17.10;99.90;;;;;;4989573;28;20019;-49
2023/06/29 02:35:07;;;;;;;9.02;3.72;;;17.10;99.90;;;;;;4989551;28;20037;-50
2023/06/29 02:37:32;;;;;;;8.25;3.47;;;17.10;99.90;;;;;;4988764;28;20030;-49
2023/06/29 02:39:58;;;;;;;11.73;3.72;;;17.00;99.90;;;;;;4989914;28;20484;-50
2023/06/29 02:42:23;;;;;;;5.55;3.53;;;17.00;99.90;;;;;;4990037;28;20487;-50
2023/06/29 02:44:49;;;;;;;7.85;3.88;;;17.00;99.90;;;;;;4989386;28;20023;-48
2023/06/29 02:47:14;;;;;;;7.32;3.58;;;17.00;99.90;;;;;;4971878;28;20026;-51
2023/06/29 02:49:40;;;;;;;4.78;3.22;;;17.00;99.90;;;;;;4989704;28;20079;-49
2023/06/29 02:52:06;;;;;;;5.57;3.33;;;17.00;99.90;;;;;;4972197;28;20546;-48
2023/06/29 02:54:31;;;;;;;7.40;3.17;;;17.00;99.90;;;;;;4989585;28;20042;-49
2023/06/29 02:56:57;;;;;;;4.80;3.10;;;17.10;99.90;;;;;;4971879;28;20034;-50
2023/06/29 02:59:22;;;;;;;5.45;3.28;;;17.10;99.90;;;;;;4989418;28;20034;-48
2023/06/29 03:01:48;;;;;;;5.13;3.17;;;17.10;99.90;;;;;;4989512;28;20065;-51
2023/06/29 03:04:13;;;;;;;5.78;3.20;;;17.10;99.90;;;;;;4989576;28;20395;-51
2023/06/29 03:06:38;;;;;;;6.38;3.75;;;17.10;99.90;;;;;;4989026;28;20038;-50
2023/06/29 03:09:04;;;;;;;4.90;3.35;;;17.20;99.90;;;;;;4989691;28;20046;-49
2023/06/29 03:11:29;;;;;;;5.22;3.25;;;17.20;99.90;;;;;;4990160;28;20092;-48
2023/06/29 03:13:57;;;;;;;8.50;3.25;;;17.20;99.90;;;;;;4989765;28;20699;-48
2023/06/29 03:16:22;;;;;;;7.10;3.28;;;17.20;99.90;;;;;;4988626;28;20026;-47
2023/06/29 03:18:48;;;;;;;6.55;3.42;;;17.20;99.90;;;;;;4989234;28;20387;-47
2023/06/29 03:21:16;;;;;;;4.90;3.13;;;17.10;99.90;;;;;;4988875;28;20034;-48
2023/06/29 03:23:42;;;;;;;9.93;3.60;;;17.20;99.90;;;;;;4989338;28;20031;-47
2023/06/29 03:26:07;;;;;;;6.68;3.25;;;17.20;99.90;;;;;;4989125;28;20092;-47
2023/06/29 03:28:33;;;;;;;7.55;3.60;;;17.20;99.90;;;;;;4988857;28;20061;-47
2023/06/29 03:30:58;;;;;;;5.20;3.30;;;17.20;99.90;;;;;;4988940;28;20392;-47
2023/06/29 03:33:24;;;;;;;6.90;3.50;;;17.20;99.90;;;;;;4989474;28;20038;-47
2023/06/29 03:35:49;;;;;;;6.30;3.30;;;17.20;99.90;;;;;;4989039;28;20414;-48
2023/06/29 03:38:17;;;;;;;5.25;3.33;;;17.30;99.90;;;;;;4988709;28;20053;-49
2023/06/29 03:40:42;;;;;;;5.85;3.55;;;17.30;99.90;;;;;;4988934;28;20026;-49
2023/06/29 03:43:08;;;;;;;4.90;3.50;;;17.30;99.90;;;;;;4989079;28;20022;-47
2023/06/29 03:45:34;;;;;;;7.97;3.53;;;17.30;99.90;;;;;;4988790;28;20115;-47
2023/06/29 03:47:59;;;;;;;7.82;3.60;;;17.30;99.90;;;;;;4988534;28;20412;-48
2023/06/29 03:50:25;;;;;;;7.25;3.28;;;17.30;99.90;;;;;;4988591;28;20026;-49
2023/06/29 03:52:50;;;;;;;5.35;3.20;;;17.40;99.90;;;;;;4989106;28;20041;-48
2023/06/29 03:55:17;;;;;;;5.28;3.00;;;17.40;99.90;;;;;;4988545;28;20034;-49
2023/06/29 03:57:42;;;;;;;3.90;3.40;;;17.40;99.90;;;;;;4970832;28;20030;-48
2023/06/29 04:00:08;;;;;;;4.25;3.30;;;17.40;99.90;;;;;;4988287;28;20040;-48
2023/06/29 04:02:34;;;;;;;6.03;3.20;;;17.50;99.90;;;;;;4988651;28;20026;-51
2023/06/29 04:04:59;;;;;;;6.57;3.20;;;17.50;99.90;;;;;;4988492;28;20096;-48
2023/06/29 04:07:25;;;;;;;4.55;2.95;;;17.50;99.90;;;;;;4988227;28;20554;-49
2023/06/29 04:09:50;;;;;;;6.97;3.72;;;17.50;99.90;;;;;;4988806;28;20026;-47
2023/06/29 04:12:16;;;;;;;5.50;2.83;;;17.50;99.90;;;;;;4988556;28;20041;-47
2023/06/29 04:14:42;;;;;;;7.43;3.40;;;17.50;99.90;;;;;;4988648;28;20030;-48
2023/06/29 04:17:07;;;;;;;6.57;3.30;;;17.60;99.90;;;;;;4987718;28;20383;-48
2023/06/29 04:19:33;;;;;;;6.55;3.67;;;17.50;99.90;;;;;;4988336;28;20022;-47
2023/06/29 04:21:58;;;;;;;5.15;3.00;;;17.60;99.90;;;;;;4988659;28;20037;-47
2023/06/29 04:24:24;;;;;;;6.47;3.42;;;17.50;99.90;;;;;;4988789;28;20494;-48
2023/06/29 04:26:50;;;;;;;6.03;3.50;;;17.60;99.90;;;;;;4988205;28;20034;-48
2023/06/29 04:29:16;;;;;;;6.85;3.47;;;17.60;99.90;;;;;;4988557;28;20038;-48
2023/06/29 04:31:41;;;;;;;5.55;3.35;;;17.70;99.90;;;;;;4988021;28;20022;-50
2023/06/29 04:34:07;;;;;;;6.47;3.20;;;17.70;99.90;;;;;;4970803;28;20030;-47
2023/06/29 04:36:32;;;;;;;8.57;3.35;;;17.70;99.90;;;;;;4969636;28;20026;-48
2023/06/29 04:38:58;;;;;;;2.92;2.58;;;17.80;99.90;;;;;;4987902;28;20023;-48
2023/06/29 04:41:31;;;;;;;5.93;3.30;;;17.80;99.90;;;;;;4987605;28;20097;-49
2023/06/29 04:44:00;;;;;;;7.50;3.60;;;17.80;99.90;;;;;;4987791;28;20117;-48
2023/06/29 04:46:28;;;;;;;7.72;3.20;;;17.90;99.90;;;;;;4970574;28;20321;-48
2023/06/29 04:48:53;;;;;;;5.05;3.00;;;17.90;99.90;;;;;;4988314;28;20617;-47
2023/06/29 04:51:19;;;;;;;5.25;3.60;;;17.90;99.90;;;;;;4987915;28;20034;-47
2023/06/29 04:53:45;;;;;;;5.60;3.85;;;17.90;99.90;;;;;;4987738;28;20054;-47
2023/06/29 04:56:11;;;;;;;7.30;3.88;;;18.00;99.90;;;;;;4987617;28;20557;-48
2023/06/29 04:58:36;;;;;;;8.13;3.90;;;17.90;99.90;;;;;;4987719;28;20021;-47
2023/06/29 05:01:02;;;;;;;5.63;3.58;;;17.90;99.90;;;;;;4987519;28;20038;-46
2023/06/29 05:03:27;;;;;;;7.40;3.42;;;17.90;99.90;;;;;;4987797;28;20026;-49
2023/06/29 05:05:53;;;;;;;4.20;3.17;;;18.00;99.90;;;;;;4987569;28;20034;-47
2023/06/29 05:08:18;;;;;;;6.13;3.95;;;18.00;99.90;;;;;;4987762;28;20042;-47
2023/06/29 05:10:44;;;;;;;6.25;3.33;;;18.10;99.90;;;;;;4987780;28;20030;-48
2023/06/29 05:13:10;;;;;;;6.65;4.50;;;18.10;99.90;;;;;;4987481;28;20490;-51
2023/06/29 05:15:35;;;;;;;8.73;3.97;;;18.20;99.90;;;;;;4970100;28;20041;-47
2023/06/29 05:18:01;;;;;;;5.82;3.75;;;18.20;99.90;;;;;;4986938;28;20018;-48
2023/06/29 05:20:27;;;;;;;6.97;4.53;;;18.20;99.90;;;;;;4987392;28;20062;-48
2023/06/29 05:22:52;;;;;;;5.38;4.18;;;18.30;99.90;;;;;;4988020;28;20076;-49
2023/06/29 05:25:18;;;;;;;7.25;3.83;;;18.30;99.90;;;;;;4987442;28;20057;-50
2023/06/29 05:27:43;;;;;;;5.32;3.83;;;18.30;99.90;;;;;;4969716;28;20281;-47
2023/06/29 05:30:09;;;;;;;7.38;4.22;;;18.40;99.90;;;;;;4969703;28;20026;-47
2023/06/29 05:32:36;;;;;;;9.07;4.35;;;18.40;99.90;;;;;;4987921;28;20325;-49
2023/06/29 05:35:02;;;;;;;7.55;4.60;;;18.50;99.90;;;;;;4983929;28;20083;-48
2023/06/29 05:37:29;;;;;;;7.90;4.15;;;18.50;99.90;;;;;;4986271;28;20027;-48
2023/06/29 05:40:13;;;;;;;6.13;4.38;;;18.60;99.90;;;;;;4956527;28;20029;-47
2023/06/29 05:42:39;;;;;;;6.25;4.50;;;18.70;99.90;;;;;;4936849;29;20029;-50
2023/06/29 05:45:05;;;;;;;10.38;5.10;;;18.70;99.90;;;;;;4977187;28;20577;-49
2023/06/29 05:47:31;;;;;;;6.32;4.95;;;18.70;99.90;;;;;;4979212;28;20551;-50
2023/06/29 05:49:56;;;;;;;6.65;5.00;;;18.80;99.90;;;;;;4962509;28;20033;-49
2023/06/29 05:52:22;;;;;;;12.57;5.18;;;18.90;99.90;;;;;;4987005;28;20030;-47
2023/06/29 05:54:47;;;;;;;8.73;4.78;;;19.00;99.90;;;;;;4990783;28;20060;-49
2023/06/29 05:57:13;;;;;;;11.23;5.30;;;19.00;99.90;;;;;;4989731;28;20040;-49
2023/06/29 05:59:38;;;;;;;8.30;4.97;;;19.10;99.90;;;;;;4990771;28;20433;-51
2023/06/29 06:02:05;;;;;;;5.25;4.45;;;19.10;99.90;;;;;;4990561;28;20034;-50
2023/06/29 06:04:30;;;;;;;6.07;4.43;;;19.20;99.90;;;;;;4972484;28;20463;-49
2023/06/29 06:06:56;;;;;;;6.20;4.85;;;19.40;99.90;;;;;;4989932;28;20053;-47
2023/06/29 06:09:21;;;;;;;7.80;4.93;;;19.40;99.90;;;;;;4990727;28;20030;-51
2023/06/29 06:11:47;;;;;;;8.25;4.65;;;19.50;99.90;;;;;;4990329;28;20031;-50
2023/06/29 06:14:12;;;;;;;6.63;4.45;;;19.60;99.90;;;;;;4990259;28;20511;-49
2023/06/29 06:16:38;;;;;;;6.45;4.70;;;19.70;99.90;;;;;;4989434;28;20038;-47
2023/06/29 06:19:03;;;;;;;7.50;4.93;;;19.70;99.90;;;;;;4972839;28;20049;-47
2023/06/29 06:21:29;;;;;;;10.07;4.90;;;19.70;99.90;;;;;;4989872;28;20089;-49
2023/06/29 06:23:54;;;;;;;5.85;4.95;;;19.70;99.90;;;;;;4990279;28;20023;-48
2023/06/29 06:26:20;;;;;;;8.02;5.43;;;19.60;99.90;;;;;;4972118;28;20488;-49
2023/06/29 06:28:46;;;;;;;5.65;4.60;;;19.70;99.90;;;;;;4989893;28;20031;-47
2023/06/29 06:31:12;;;;;;;7.68;5.00;;;19.80;99.90;;;;;;4989868;28;20101;-46
2023/06/29 06:33:39;;;;;;;5.75;4.55;;;19.80;99.90;;;;;;4989985;28;20032;-47
2023/06/29 06:36:06;;;;;;;8.73;5.60;;;19.90;99.90;;;;;;4989869;28;20387;-48
2023/06/29 06:38:31;;;;;;;9.77;5.43;;;20.10;99.90;;;;;;4989612;28;20483;-47
2023/06/29 06:40:57;;;;;;;9.25;5.15;;;20.10;99.90;;;;;;4990196;28;20103;-49
2023/06/29 06:43:22;;;;;;;7.05;5.22;;;20.20;99.90;;;;;;4972696;28;20495;-49
2023/06/29 06:45:48;;;;;;;11.88;6.00;;;20.30;99.90;;;;;;4989989;28;20353;-51
2023/06/29 06:48:13;;;;;;;6.60;4.68;;;20.30;99.90;;;;;;4971901;28;20122;-47
2023/06/29 06:50:39;;;;;;;8.88;5.25;;;20.40;99.90;;;;;;4989690;28;20038;-49
2023/06/29 06:53:05;;;;;;;7.38;5.40;;;20.60;99.90;;;;;;4989809;28;20384;-50
2023/06/29 06:55:30;;;;;;;7.70;5.85;;;20.60;99.90;;;;;;4990016;28;20396;-50
2023/06/29 06:57:56;;;;;;;8.35;5.75;;;20.70;99.90;;;;;;4988644;28;20023;-50
2023/06/29 07:00:22;;;;;;;8.18;5.53;;;20.70;99.90;;;;;;4972364;28;20095;-48
2023/06/29 07:02:47;;;;;;;7.88;5.63;;;20.70;99.90;;;;;;4989636;28;20030;-49
2023/06/29 07:05:14;;;;;;;7.60;5.95;;;20.80;99.90;;;;;;4988250;28;20034;-48
2023/06/29 07:07:39;;;;;;;7.43;5.93;;;20.80;99.90;;;;;;4988573;28;20030;-48
2023/06/29 07:10:05;;;;;;;6.43;5.57;;;20.80;99.90;;;;;;4990137;28;20364;-49
2023/06/29 07:12:31;;;;;;;6.57;5.88;;;20.80;99.90;;;;;;4990082;28;20053;-50
2023/06/29 07:14:56;;;;;;;6.93;6.22;;;20.90;99.90;;;;;;5027966;28;20035;-48
2023/06/29 07:17:22;;;;;;;14.00;5.82;;;20.90;99.90;;;;;;5068502;28;20031;-49
2023/06/29 07:19:47;;;;;;;8.55;5.78;;;20.90;99.90;;;;;;4988880;28;20067;-51
2023/06/29 07:22:13;;;;;;;8.57;5.88;;;21.00;99.90;;;;;;4996656;28;20041;-48
2023/06/29 07:24:38;;;;;;;10.25;6.70;;;21.10;99.90;;;;;;4988852;28;20454;-50
2023/06/29 07:27:04;;;;;;;7.28;5.55;;;21.10;99.90;;;;;;4988742;28;20053;-49
2023/06/29 07:29:30;;;;;;;10.60;6.22;;;21.00;99.90;;;;;;4988873;28;20038;-49
2023/06/29 07:31:56;;;;;;;8.10;6.10;;;21.00;99.90;;;;;;4989750;28;20163;-47
2023/06/29 07:34:23;;;;;;;9.05;5.60;;;21.00;99.90;;;;;;4971820;28;20126;-50
2023/06/29 07:36:50;;;;;;;9.48;5.95;;;21.10;99.90;;;;;;4988594;28;20029;-50
2023/06/29 07:39:16;;;;;;;6.88;5.93;;;21.10;99.90;;;;;;4984625;28;20102;-49
2023/06/29 07:41:42;;;;;;;8.48;5.78;;;21.20;99.90;;;;;;4975048;28;20023;-50
2023/06/29 07:44:08;;;;;;;11.18;5.80;;;21.40;99.90;;;;;;4952258;28;20023;-50
2023/06/29 07:46:34;;;;;;;11.63;6.47;;;21.50;99.90;;;;;;4979416;28;20034;-48
2023/06/29 07:49:00;;;;;;;12.85;7.38;;;21.70;99.90;;;;;;4987487;28;20038;-50
2023/06/29 07:51:32;;;;;;;14.75;7.75;;;21.80;99.90;;;;;;4987201;28;20080;-49
2023/06/29 07:53:58;;;;;;;16.23;7.25;;;21.70;99.90;;;;;;4987732;28;20372;-49
2023/06/29 07:56:24;;;;;;;18.58;7.18;;;21.80;99.90;;;;;;4987015;28;20468;-47
2023/06/29 07:58:49;;;;;;;13.68;8.30;;;22.00;99.90;;;;;;4987754;28;20026;-48
2023/06/29 08:01:17;;;;;;;11.50;7.75;;;22.10;99.90;;;;;;4988254;28;20030;-48
2023/06/29 08:03:44;;;;;;;16.02;8.73;;;22.00;99.90;;;;;;4988732;28;20030;-50
2023/06/29 08:06:10;;;;;;;11.65;7.65;;;22.00;99.90;;;;;;4988157;28;20037;-48
2023/06/29 08:08:36;;;;;;;10.88;6.60;;;22.00;99.90;;;;;;4988299;28;20204;-50
2023/06/29 08:11:02;;;;;;;13.07;8.20;;;22.10;99.90;;;;;;4987507;28;20034;-49
2023/06/29 08:13:27;;;;;;;13.60;8.50;;;22.10;99.90;;;;;;4970756;28;20383;-50
2023/06/29 08:15:53;;;;;;;13.73;6.63;;;22.00;99.90;;;;;;4985885;28;20788;-50
2023/06/29 08:18:18;;;;;;;12.25;7.90;;;22.10;99.90;;;;;;4987557;28;20022;-50
2023/06/29 08:20:46;;;;;;;11.27;8.15;;;22.20;99.90;;;;;;4988071;28;20025;-48
2023/06/29 08:23:12;;;;;;;15.32;7.90;;;22.40;99.90;;;;;;4988439;28;20092;-48
2023/06/29 08:25:37;;;;;;;8.95;7.45;;;22.50;99.90;;;;;;4987947;28;20519;-50
2023/06/29 08:28:03;;;;;;;12.95;9.02;;;22.50;99.90;;;;;;4988057;28;20079;-51
2023/06/29 08:30:28;;;;;;;11.63;8.27;;;22.40;99.90;;;;;;4988476;28;20117;-48
2023/06/29 08:32:54;;;;;;;13.50;8.35;;;22.50;99.90;;;;;;4955162;28;20029;-49
2023/06/29 08:35:20;;;;;;;6.88;5.78;;;22.60;99.90;;;;;;4969282;28;20026;-48
2023/06/29 08:37:45;;;;;;;13.00;7.72;;;22.90;99.90;;;;;;4986834;28;20027;-51
2023/06/29 08:40:11;;;;;;;9.00;7.55;;;23.20;99.90;;;;;;4985752;28;20034;-48
2023/06/29 08:42:37;;;;;;;13.77;7.75;;;23.40;99.90;;;;;;4988274;28;20027;-51
2023/06/29 08:45:05;;;;;;;17.40;7.72;;;23.50;99.90;;;;;;4988098;28;20048;-51
2023/06/29 08:47:51;;;;;;;9.50;6.72;;;23.60;99.90;;;;;;4987165;28;20022;-51
2023/06/29 08:50:57;;;;;;;10.85;6.18;;;23.70;99.90;;;;;;4944349;29;20069;-51
2023/06/29 08:53:24;;;;;;;8.77;6.63;;;23.80;99.90;;;;;;4972838;28;20082;-49
2023/06/29 08:55:51;;;;;;;8.43;6.57;;;24.00;99.90;;;;;;4950087;28;20567;-51
2023/06/29 08:58:19;;;;;;;10.05;6.28;;;24.40;99.90;;;;;;4986627;28;20095;-49
2023/06/29 09:00:47;;;;;;;12.88;6.35;;;25.10;99.90;;;;;;4987823;28;20053;-50
2023/06/29 09:03:14;;;;;;;10.15;5.80;;;25.20;98.50;;;;;;4987830;28;20030;-51
2023/06/29 09:05:39;;;;;;;8.63;5.50;;;25.60;98.10;;;;;;4987878;28;20026;-49
2023/06/29 09:08:05;;;;;;;7.07;5.13;;;25.70;98.40;;;;;;4986811;28;20031;-51
2023/06/29 09:10:31;;;;;;;7.68;6.07;;;26.00;98.10;;;;;;4987618;28;20022;-51
2023/06/29 09:12:57;;;;;;;6.85;5.75;;;26.30;97.20;;;;;;4987828;28;20026;-49
2023/06/29 09:15:25;;;;;;;11.18;6.80;;;26.30;96.70;;;;;;4987543;28;20034;-51
2023/06/29 09:17:55;;;;;;;11.43;6.35;;;26.40;95.40;;;;;;4969719;28;20479;-50
2023/06/29 09:20:21;;;;;;;9.93;6.40;;;26.50;95.80;;;;;;4987201;28;20026;-51
2023/06/29 09:22:51;;;;;;;11.32;6.53;;;26.60;95.40;;;;;;4987100;28;20075;-51
2023/06/29 09:25:16;;;;;;;10.65;7.03;;;26.70;96.10;;;;;;4987410;28;20099;-51
2023/06/29 09:27:42;;;;;;;10.13;7.10;;;26.80;95.00;;;;;;4987169;28;20034;-51
2023/06/29 09:30:14;;;;;;;13.27;6.70;;;27.00;95.20;;;;;;4987636;28;20109;-51
2023/06/29 09:32:40;;;;;;;14.80;8.15;;;27.20;95.00;;;;;;4987475;28;20078;-51
2023/06/29 09:35:07;;;;;;;17.38;8.00;;;27.30;94.00;;;;;;4970018;28;20422;-51
2023/06/29 09:37:33;;;;;;;12.90;8.55;;;27.30;94.20;;;;;;4969271;28;20026;-50
2023/06/29 09:39:59;;;;;;;13.48;8.05;;;27.40;93.40;;;;;;4987836;28;20383;-51
2023/06/29 09:42:28;;;;;;;12.52;7.20;;;27.00;93.10;;;;;;4987433;28;20027;-50
2023/06/29 09:45:01;;;;;;;10.63;6.88;;;26.70;93.50;;;;;;4987383;28;20068;-51
2023/06/29 09:47:26;;;;;;;17.27;9.50;;;26.50;94.60;;;;;;4987080;28;20077;-51
2023/06/29 09:49:52;;;;;;;13.90;8.45;;;26.70;95.30;;;;;;4970074;28;20027;-51
2023/06/29 09:52:18;;;;;;;13.77;8.90;;;26.90;95.30;;;;;;4987427;28;20068;-51
2023/06/29 09:54:44;;;;;;;10.63;7.63;;;26.90;94.70;;;;;;4987597;28;20038;-51
2023/06/29 09:57:13;;;;;;;16.48;8.32;;;27.30;94.10;;;;;;4986658;28;20037;-51
2023/06/29 09:59:41;;;;;;;16.13;8.17;;;27.10;93.40;;;;;;4987334;28;20031;-52
2023/06/29 10:02:08;;;;;;;11.93;9.05;;;27.70;93.80;;;;;;4986970;28;20033;-50
2023/06/29 10:04:34;;;;;;;15.50;7.53;;;28.00;92.40;;;;;;4969101;28;20497;-51
2023/06/29 10:07:08;;;;;;;13.05;8.05;;;28.40;92.10;;;;;;4986855;28;20038;-51
2023/06/29 10:09:39;;;;;;;12.18;8.10;;;28.60;92.40;;;;;;4986690;28;20540;-51
2023/06/29 10:12:07;;;;;;;13.57;8.93;;;29.40;91.50;;;;;;4985448;28;20491;-49
2023/06/29 10:14:33;;;;;;;15.23;8.82;;;29.30;89.90;;;;;;4986281;28;20380;-51
2023/06/29 10:17:02;;;;;;;16.77;10.23;;;29.40;90.30;;;;;;4985915;28;20392;-48
2023/06/29 10:19:30;;;;;;;15.73;10.95;;;29.50;88.00;;;;;;4986364;28;20022;-50
2023/06/29 10:22:00;;;;;;;14.85;10.25;;;29.20;87.20;;;;;;4986725;28;20038;-49
2023/06/29 10:24:33;;;;;;;15.73;11.18;;;28.70;89.00;;;;;;5052600;28;20018;-48
2023/06/29 10:27:01;;;;;;;15.27;9.25;;;28.90;91.10;;;;;;4966274;28;20035;-49
2023/06/29 10:29:27;;;;;;;12.60;9.82;;;29.10;89.00;;;;;;4981909;28;20038;-50
2023/06/29 10:31:58;;;;;;;15.75;11.45;;;29.30;88.80;;;;;;4982381;28;20030;-49
2023/06/29 10:34:26;;;;;;;19.17;9.95;;;29.50;88.20;;;;;;4984737;28;20038;-49
2023/06/29 10:36:54;;;;;;;19.40;12.32;;;29.40;88.20;;;;;;4984956;28;20442;-48
2023/06/29 10:39:39;;;;;;;17.48;11.52;;;29.30;86.20;;;;;;4985728;28;20019;-48
2023/06/29 10:42:25;;;;;;;19.90;13.30;;;29.00;87.50;;;;;;4985100;28;20094;-50
2023/06/29 10:44:51;;;;;;;15.48;11.48;;;28.70;88.20;;;;;;4988366;28;20095;-49
2023/06/29 10:47:27;;;;;;;18.05;11.88;;;28.60;89.60;;;;;;4984678;28;20069;-52
2023/06/29 10:50:17;;;;;;;18.27;11.55;;;28.60;89.50;;;;;;4989714;28;20421;-52
2023/06/29 10:52:43;;;;;;;15.38;11.63;;;28.70;90.50;;;;;;5064515;28;20630;-47
2023/06/29 10:55:20;;;;;;;20.15;13.15;;;28.70;89.10;;;;;;5092565;28;20392;-47
2023/06/29 10:57:48;;;;;;;18.60;13.13;;;28.90;87.60;;;;;;5083409;28;20747;-49
2023/06/29 11:00:15;;;;;;;14.18;11.13;;;29.00;85.40;;;;;;5088884;28;20512;-50
2023/06/29 11:02:41;;;;;;;22.52;11.57;;;29.10;87.80;;;;;;5091909;28;20158;-51
2023/06/29 11:05:12;;;;;;;16.88;11.60;;;29.20;85.70;;;;;;5091801;28;20115;-48
2023/06/29 11:07:38;;;;;;;19.30;11.93;;;29.10;85.90;;;;;;5091071;28;20301;-50
2023/06/29 11:10:04;;;;;;;13.77;10.75;;;28.60;86.20;;;;;;5092314;28;20036;-49
2023/06/29 11:12:29;;;;;;;15.48;11.38;;;28.80;88.00;;;;;;5073464;28;20437;-51
2023/06/29 11:14:56;;;;;;;19.58;12.82;;;28.80;87.90;;;;;;5073207;28;20103;-49
2023/06/29 11:17:23;;;;;;;20.65;11.77;;;28.50;85.40;;;;;;5091360;28;20024;-49
2023/06/29 11:19:49;;;;;;;16.70;11.77;;;28.10;88.10;;;;;;5092460;28;20026;-49
2023/06/29 11:22:19;;;;;;;15.60;11.88;;;27.80;90.30;;;;;;5092062;28;20020;-50
2023/06/29 11:24:45;;;;;;;16.73;11.50;;;27.80;89.10;;;;;;5073994;28;20111;-47
2023/06/29 11:27:11;;;;;;;17.65;11.98;;;27.80;87.70;;;;;;5091521;28;20024;-48
2023/06/29 11:29:38;;;;;;;24.98;13.30;;;27.50;89.50;;;;;;5091929;28;20039;-49
2023/06/29 11:32:15;;;;;;;27.42;13.23;;;27.40;89.80;;;;;;5091878;28;20035;-48
2023/06/29 11:34:40;;;;;;;21.20;12.63;;;27.10;90.70;;;;;;5091989;28;20391;-48
2023/06/29 11:37:06;;;;;;;20.83;12.85;;;27.00;90.50;;;;;;5073320;28;20231;-46
2023/06/29 11:39:32;;;;;;;23.73;13.65;;;27.00;91.30;;;;;;5073612;28;20016;-49
2023/06/29 11:41:57;;;;;;;21.83;12.52;;;27.20;91.20;;;;;;5091910;28;20012;-49
2023/06/29 11:44:23;;;;;;;15.80;11.57;;;27.40;91.30;;;;;;5090908;28;20381;-49
2023/06/29 11:46:49;;;;;;;18.77;12.77;;;27.80;90.60;;;;;;5090978;28;20028;-49
2023/06/29 11:49:18;;;;;;;16.08;12.05;;;27.60;89.40;;;;;;5091993;28;20028;-50
2023/06/29 11:51:44;;;;;;;15.93;11.07;;;28.00;90.00;;;;;;5091845;28;20092;-48
2023/06/29 11:54:10;;;;;;;17.63;12.40;;;28.70;89.00;;;;;;5091530;28;20040;-48
2023/06/29 11:56:41;;;;;;;13.70;10.80;;;28.80;87.60;;;;;;5090898;28;20024;-46
2023/06/29 11:59:12;;;;;;;16.00;11.88;;;28.90;88.60;;;;;;5091679;28;20032;-49
2023/06/29 12:01:39;;;;;;;18.77;12.07;;;29.10;89.00;;;;;;5091458;28;20020;-49
2023/06/29 12:04:05;;;;;;;15.80;11.60;;;28.90;88.30;;;;;;5091262;28;20443;-48
2023/06/29 12:06:32;;;;;;;16.83;12.45;;;28.70;89.30;;;;;;5090863;28;20099;-50
2023/06/29 12:08:58;;;;;;;16.67;12.25;;;28.40;87.40;;;;;;5055350;28;20026;-49
2023/06/29 12:11:25;;;;;;;18.83;11.80;;;27.90;89.00;;;;;;4988873;28;20045;-49
2023/06/29 12:13:51;;;;;;;17.83;11.90;;;27.50;89.80;;;;;;4992413;28;20030;-50
2023/06/29 12:16:17;;;;;;;19.77;12.68;;;27.30;90.70;;;;;;4982472;28;20449;-50
2023/06/29 12:18:43;;;;;;;14.88;12.05;;;26.90;91.60;;;;;;4990289;28;20075;-48
2023/06/29 12:21:09;;;;;;;19.25;13.85;;;26.80;91.40;;;;;;4974500;28;20117;-50
2023/06/29 12:23:34;;;;;;;22.13;13.80;;;26.60;91.40;;;;;;4987614;28;20026;-49
2023/06/29 12:26:00;;;;;;;23.38;13.10;;;26.40;91.50;;;;;;4985605;28;20031;-48
2023/06/29 12:28:26;;;;;;;21.83;13.60;;;26.30;92.20;;;;;;4984894;28;20034;-48
2023/06/29 12:30:51;;;;;;;19.13;12.07;;;26.30;92.70;;;;;;4971354;28;20105;-49
2023/06/29 12:33:17;;;;;;;18.95;14.38;;;26.30;93.20;;;;;;4988470;28;20387;-48
2023/06/29 12:35:43;;;;;;;17.60;13.15;;;26.20;92.80;;;;;;4988218;28;20031;-50
2023/06/29 12:38:08;;;;;;;19.17;13.50;;;26.00;93.60;;;;;;4987547;28;20105;-49